sensor_id;sensor_type;location;lat;lon;timestamp;pressure;altitude;pressure_sealevel;temperature;humidity
38786;BME280;24535;45.508;12.252;2023-05-25T00:01:34;101474.59;;;24.16;54.86
38786;BME280;24535;45.508;12.252;2023-05-25T00:04:00;101478.31;;;24.15;54.56
38786;BME280;24535;45.508;12.252;2023-05-25T00:06:28;101479.28;;;24.14;54.60
38786;BME280;24535;45.508;12.252;2023-05-25T00:08:54;101482.81;;;24.14;54.59
38786;BME280;24535;45.508;12.252;2023-05-25T00:11:21;101485.53;;;24.14;54.14
38786;BME280;24535;45.508;12.252;2023-05-25T00:13:47;101481.16;;;24.13;54.41
38786;BME280;24535;45.508;12.252;2023-05-25T00:16:13;101478.66;;;24.12;54.43
38786;BME280;24535;45.508;12.252;2023-05-25T00:18:38;101479.66;;;24.11;54.39
38786;BME280;24535;45.508;12.252;2023-05-25T00:21:04;101481.69;;;24.09;54.29
38786;BME280;24535;45.508;12.252;2023-05-25T00:23:30;101479.50;;;24.04;54.66
38786;BME280;24535;45.508;12.252;2023-05-25T00:25:56;101479.00;;;24.01;54.45
38786;BME280;24535;45.508;12.252;2023-05-25T00:28:21;101488.25;;;23.98;54.69
38786;BME280;24535;45.508;12.252;2023-05-25T00:30:46;101485.75;;;23.97;54.57
38786;BME280;24535;45.508;12.252;2023-05-25T00:33:12;101485.75;;;23.97;54.93
38786;BME280;24535;45.508;12.252;2023-05-25T00:35:37;101487.78;;;23.95;54.77
38786;BME280;24535;45.508;12.252;2023-05-25T00:38:03;101482.41;;;23.95;55.31
38786;BME280;24535;45.508;12.252;2023-05-25T00:40:28;101493.00;;;23.96;55.13
38786;BME280;24535;45.508;12.252;2023-05-25T00:42:54;101495.69;;;23.96;55.26
38786;BME280;24535;45.508;12.252;2023-05-25T00:45:20;101485.75;;;23.97;55.07
38786;BME280;24535;45.508;12.252;2023-05-25T00:47:45;101486.59;;;23.97;55.20
38786;BME280;24535;45.508;12.252;2023-05-25T00:50:15;101482.88;;;23.98;55.38
38786;BME280;24535;45.508;12.252;2023-05-25T00:52:41;101487.44;;;23.98;55.11
38786;BME280;24535;45.508;12.252;2023-05-25T00:55:07;101486.59;;;23.97;54.84
38786;BME280;24535;45.508;12.252;2023-05-25T00:57:32;101484.91;;;23.96;54.70
38786;BME280;24535;45.508;12.252;2023-05-25T01:00:02;101478.19;;;23.92;54.66
38786;BME280;24535;45.508;12.252;2023-05-25T01:02:31;101490.13;;;23.89;54.81
38786;BME280;24535;45.508;12.252;2023-05-25T01:04:58;101488.78;;;23.85;54.75
38786;BME280;24535;45.508;12.252;2023-05-25T01:07:25;101490.84;;;23.83;54.77
38786;BME280;24535;45.508;12.252;2023-05-25T01:09:57;101494.88;;;23.79;54.99
38786;BME280;24535;45.508;12.252;2023-05-25T01:12:31;101493.53;;;23.75;55.07
38786;BME280;24535;45.508;12.252;2023-05-25T01:14:59;101497.56;;;23.71;54.86
38786;BME280;24535;45.508;12.252;2023-05-25T01:17:25;101497.91;;;23.68;55.23
38786;BME280;24535;45.508;12.252;2023-05-25T01:19:53;101499.06;;;23.65;55.16
38786;BME280;24535;45.508;12.252;2023-05-25T01:22:19;101504.78;;;23.62;55.23
38786;BME280;24535;45.508;12.252;2023-05-25T01:24:53;101502.44;;;23.59;55.17
38786;BME280;24535;45.508;12.252;2023-05-25T01:27:22;101498.22;;;23.57;55.54
38786;BME280;24535;45.508;12.252;2023-05-25T01:29:48;101497.56;;;23.55;55.34
38786;BME280;24535;45.508;12.252;2023-05-25T01:32:14;101503.28;;;23.52;55.43
38786;BME280;24535;45.508;12.252;2023-05-25T01:34:42;101500.25;;;23.47;55.52
38786;BME280;24535;45.508;12.252;2023-05-25T01:37:07;101499.75;;;23.43;55.34
38786;BME280;24535;45.508;12.252;2023-05-25T01:39:33;101499.41;;;23.38;55.49
38786;BME280;24535;45.508;12.252;2023-05-25T01:41:58;101497.06;;;23.35;55.61
38786;BME280;24535;45.508;12.252;2023-05-25T01:44:23;101495.72;;;23.31;55.84
38786;BME280;24535;45.508;12.252;2023-05-25T01:46:52;101505.13;;;23.27;56.05
38786;BME280;24535;45.508;12.252;2023-05-25T01:49:43;101493.03;;;23.23;55.80
38786;BME280;24535;45.508;12.252;2023-05-25T01:54:36;101501.59;;;23.18;55.85
38786;BME280;24535;45.508;12.252;2023-05-25T01:57:05;101498.22;;;23.16;56.09
38786;BME280;24535;45.508;12.252;2023-05-25T01:59:31;101504.94;;;23.12;55.66
38786;BME280;24535;45.508;12.252;2023-05-25T02:01:57;101501.56;;;23.10;55.93
38786;BME280;24535;45.508;12.252;2023-05-25T02:04:23;101499.22;;;23.07;56.30
38786;BME280;24535;45.508;12.252;2023-05-25T02:06:50;101502.91;;;23.06;56.01
38786;BME280;24535;45.508;12.252;2023-05-25T02:09:15;101509.28;;;23.05;55.91
38786;BME280;24535;45.508;12.252;2023-05-25T02:11:41;101504.25;;;23.02;56.37
38786;BME280;24535;45.508;12.252;2023-05-25T02:14:06;101503.41;;;23.01;56.02
38786;BME280;24535;45.508;12.252;2023-05-25T02:16:33;101504.56;;;22.99;56.27
38786;BME280;24535;45.508;12.252;2023-05-25T02:18:58;101508.94;;;23.00;56.21
38786;BME280;24535;45.508;12.252;2023-05-25T02:21:23;101507.25;;;22.99;56.43
38786;BME280;24535;45.508;12.252;2023-05-25T02:23:49;101511.81;;;22.98;56.15
38786;BME280;24535;45.508;12.252;2023-05-25T02:26:14;101514.63;;;22.97;55.91
38786;BME280;24535;45.508;12.252;2023-05-25T02:28:40;101511.09;;;22.96;56.24
38786;BME280;24535;45.508;12.252;2023-05-25T02:31:05;101508.41;;;22.96;55.92
38786;BME280;24535;45.508;12.252;2023-05-25T02:33:30;101503.22;;;22.94;55.83
38786;BME280;24535;45.508;12.252;2023-05-25T02:35:56;101505.91;;;22.94;56.03
38786;BME280;24535;45.508;12.252;2023-05-25T02:38:21;101506.09;;;22.93;55.91
38786;BME280;24535;45.508;12.252;2023-05-25T02:40:46;101512.44;;;22.92;56.17
38786;BME280;24535;45.508;12.252;2023-05-25T02:43:12;101518.00;;;22.90;56.22
38786;BME280;24535;45.508;12.252;2023-05-25T02:45:37;101512.75;;;22.89;55.77
38786;BME280;24535;45.508;12.252;2023-05-25T02:48:02;101525.31;;;22.88;56.29
38786;BME280;24535;45.508;12.252;2023-05-25T02:50:28;101526.34;;;22.87;56.24
38786;BME280;24535;45.508;12.252;2023-05-25T02:52:53;101523.66;;;22.87;55.67
38786;BME280;24535;45.508;12.252;2023-05-25T02:55:19;101530.03;;;22.86;55.80
38786;BME280;24535;45.508;12.252;2023-05-25T02:57:44;101544.31;;;22.87;55.87
38786;BME280;24535;45.508;12.252;2023-05-25T03:00:09;101537.09;;;22.87;55.93
38786;BME280;24535;45.508;12.252;2023-05-25T03:02:38;101528.38;;;22.85;55.75
38786;BME280;24535;45.508;12.252;2023-05-25T03:05:04;101529.22;;;22.86;55.61
38786;BME280;24535;45.508;12.252;2023-05-25T03:07:29;101548.16;;;22.84;55.23
38786;BME280;24535;45.508;12.252;2023-05-25T03:09:55;101540.28;;;22.83;55.54
38786;BME280;24535;45.508;12.252;2023-05-25T03:12:20;101545.13;;;22.79;55.38
38786;BME280;24535;45.508;12.252;2023-05-25T03:14:46;101554.03;;;22.80;55.72
38786;BME280;24535;45.508;12.252;2023-05-25T03:17:11;101553.19;;;22.79;55.45
38786;BME280;24535;45.508;12.252;2023-05-25T03:19:36;101556.03;;;22.78;55.29
38786;BME280;24535;45.508;12.252;2023-05-25T03:22:02;101555.22;;;22.77;55.62
38786;BME280;24535;45.508;12.252;2023-05-25T03:24:27;101567.47;;;22.80;56.00
38786;BME280;24535;45.508;12.252;2023-05-25T03:26:53;101561.06;;;22.81;55.61
38786;BME280;24535;45.508;12.252;2023-05-25T03:29:18;101558.38;;;22.81;55.75
38786;BME280;24535;45.508;12.252;2023-05-25T03:31:43;101563.44;;;22.84;55.81
38786;BME280;24535;45.508;12.252;2023-05-25T03:34:09;101567.81;;;22.85;55.27
38786;BME280;24535;45.508;12.252;2023-05-25T03:36:34;101567.81;;;22.85;55.40
38786;BME280;24535;45.508;12.252;2023-05-25T03:39:01;101573.34;;;22.83;55.50
38786;BME280;24535;45.508;12.252;2023-05-25T03:41:29;101566.13;;;22.84;55.55
38786;BME280;24535;45.508;12.252;2023-05-25T03:43:56;101569.66;;;22.84;55.42
38786;BME280;24535;45.508;12.252;2023-05-25T03:46:22;101567.97;;;22.83;55.13
38786;BME280;24535;45.508;12.252;2023-05-25T03:48:47;101566.00;;;22.85;55.08
38786;BME280;24535;45.508;12.252;2023-05-25T03:51:12;101568.69;;;22.85;54.83
38786;BME280;24535;45.508;12.252;2023-05-25T03:53:38;101567.81;;;22.85;55.29
38786;BME280;24535;45.508;12.252;2023-05-25T03:56:03;101566.13;;;22.84;55.38
38786;BME280;24535;45.508;12.252;2023-05-25T03:58:29;101571.38;;;22.85;55.23
38786;BME280;24535;45.508;12.252;2023-05-25T04:00:54;101566.97;;;22.84;54.91
38786;BME280;24535;45.508;12.252;2023-05-25T04:03:20;101571.38;;;22.85;56.19
38786;BME280;24535;45.508;12.252;2023-05-25T04:05:45;101575.72;;;22.86;54.96
38786;BME280;24535;45.508;12.252;2023-05-25T04:08:12;101576.75;;;22.85;55.24
38786;BME280;24535;45.508;12.252;2023-05-25T04:10:38;101579.41;;;22.85;54.91
38786;BME280;24535;45.508;12.252;2023-05-25T04:13:03;101579.41;;;22.85;55.03
38786;BME280;24535;45.508;12.252;2023-05-25T04:15:29;101591.16;;;22.84;55.54
38786;BME280;24535;45.508;12.252;2023-05-25T04:17:54;101595.69;;;22.84;55.06
38786;BME280;24535;45.508;12.252;2023-05-25T04:20:20;101597.53;;;22.83;54.73
38786;BME280;24535;45.508;12.252;2023-05-25T04:22:45;101605.78;;;22.82;55.06
38786;BME280;24535;45.508;12.252;2023-05-25T04:25:11;101599.22;;;22.84;55.42
38786;BME280;24535;45.508;12.252;2023-05-25T04:27:37;101608.81;;;22.87;55.63
38786;BME280;24535;45.508;12.252;2023-05-25T04:30:03;101610.34;;;22.89;55.61
38786;BME280;24535;45.508;12.252;2023-05-25T04:32:28;101612.06;;;22.90;55.21
38786;BME280;24535;45.508;12.252;2023-05-25T04:34:56;101608.22;;;22.93;55.17
38786;BME280;24535;45.508;12.252;2023-05-25T04:37:23;101615.78;;;22.98;55.38
38786;BME280;24535;45.508;12.252;2023-05-25T04:39:51;101613.63;;;23.01;55.30
38786;BME280;24535;45.508;12.252;2023-05-25T04:42:22;101613.25;;;23.04;55.23
38786;BME280;24535;45.508;12.252;2023-05-25T04:44:51;101608.59;;;23.06;55.12
38786;BME280;24535;45.508;12.252;2023-05-25T04:47:23;101623.53;;;23.09;55.21
38786;BME280;24535;45.508;12.252;2023-05-25T04:49:49;101618.84;;;23.11;55.15
38786;BME280;24535;45.508;12.252;2023-05-25T04:52:23;101618.66;;;23.12;54.88
38786;BME280;24535;45.508;12.252;2023-05-25T04:54:48;101622.19;;;23.13;54.92
38786;BME280;24535;45.508;12.252;2023-05-25T04:57:13;101623.91;;;23.14;54.78
38786;BME280;24535;45.508;12.252;2023-05-25T04:59:39;101623.06;;;23.13;54.70
38786;BME280;24535;45.508;12.252;2023-05-25T05:02:04;101628.25;;;23.15;54.75
38786;BME280;24535;45.508;12.252;2023-05-25T05:04:30;101628.94;;;23.17;54.69
38786;BME280;24535;45.508;12.252;2023-05-25T05:06:55;101632.31;;;23.19;55.18
38786;BME280;24535;45.508;12.252;2023-05-25T05:09:20;101636.00;;;23.18;55.29
38786;BME280;24535;45.508;12.252;2023-05-25T05:11:46;101642.22;;;23.18;54.92
38786;BME280;24535;45.508;12.252;2023-05-25T05:14:11;101637.69;;;23.19;54.79
38786;BME280;24535;45.508;12.252;2023-05-25T05:16:36;101647.28;;;23.22;54.92
38786;BME280;24535;45.508;12.252;2023-05-25T05:19:02;101656.00;;;23.24;54.86
38786;BME280;24535;45.508;12.252;2023-05-25T05:21:27;101659.41;;;23.26;54.80
38786;BME280;24535;45.508;12.252;2023-05-25T05:23:52;101667.94;;;23.29;55.03
38786;BME280;24535;45.508;12.252;2023-05-25T05:26:18;101668.47;;;23.33;54.77
38786;BME280;24535;45.508;12.252;2023-05-25T05:28:43;101672.88;;;23.34;54.88
38786;BME280;24535;45.508;12.252;2023-05-25T05:31:09;101678.06;;;23.35;54.42
38786;BME280;24535;45.508;12.252;2023-05-25T05:33:36;101682.31;;;23.38;54.83
38786;BME280;24535;45.508;12.252;2023-05-25T05:36:01;101681.81;;;23.42;54.59
38786;BME280;24535;45.508;12.252;2023-05-25T05:38:27;101688.38;;;23.48;54.58
38786;BME280;24535;45.508;12.252;2023-05-25T05:40:53;101686.53;;;23.57;54.82
38786;BME280;24535;45.508;12.252;2023-05-25T05:43:18;101695.63;;;23.64;54.59
38786;BME280;24535;45.508;12.252;2023-05-25T05:45:43;101696.00;;;23.69;54.60
38786;BME280;24535;45.508;12.252;2023-05-25T05:48:08;101701.75;;;23.74;54.39
38786;BME280;24535;45.508;12.252;2023-05-25T05:50:37;101699.41;;;23.79;54.37
38786;BME280;24535;45.508;12.252;2023-05-25T05:53:03;101707.31;;;23.81;54.02
38786;BME280;24535;45.508;12.252;2023-05-25T05:55:28;101698.91;;;23.84;53.87
38786;BME280;24535;45.508;12.252;2023-05-25T05:57:53;101716.22;;;23.89;54.39
38786;BME280;24535;45.508;12.252;2023-05-25T06:00:19;101719.59;;;23.91;54.36
38786;BME280;24535;45.508;12.252;2023-05-25T06:02:44;101721.81;;;23.96;54.16
38786;BME280;24535;45.508;12.252;2023-05-25T06:05:10;101714.91;;;24.02;54.13
38786;BME280;24535;45.508;12.252;2023-05-25T06:07:36;101722.13;;;24.09;54.39
38786;BME280;24535;45.508;12.252;2023-05-25T06:10:02;101724.69;;;24.19;54.27
38786;BME280;24535;45.508;12.252;2023-05-25T06:12:28;101723.84;;;24.27;54.04
38786;BME280;24535;45.508;12.252;2023-05-25T06:14:53;101725.53;;;24.36;53.31
38786;BME280;24535;45.508;12.252;2023-05-25T06:17:19;101734.81;;;24.41;53.17
38786;BME280;24535;45.508;12.252;2023-05-25T06:19:44;101736.00;;;24.47;52.97
38786;BME280;24535;45.508;12.252;2023-05-25T06:22:10;101739.34;;;24.49;52.75
38786;BME280;24535;45.508;12.252;2023-05-25T06:24:38;101741.38;;;24.55;52.84
38786;BME280;24535;45.508;12.252;2023-05-25T06:27:03;101732.94;;;24.58;52.49
38786;BME280;24535;45.508;12.252;2023-05-25T06:29:29;101736.31;;;24.60;52.16
38786;BME280;24535;45.508;12.252;2023-05-25T06:31:54;101736.00;;;24.63;52.14
38786;BME280;24535;45.508;12.252;2023-05-25T06:34:19;101738.16;;;24.68;51.99
38786;BME280;24535;45.508;12.252;2023-05-25T06:36:45;101741.19;;;24.73;52.31
38786;BME280;24535;45.508;12.252;2023-05-25T06:39:11;101751.25;;;24.79;52.21
38786;BME280;24535;45.508;12.252;2023-05-25T06:41:37;101752.63;;;24.83;52.02
38786;BME280;24535;45.508;12.252;2023-05-25T06:44:02;101753.28;;;24.85;52.11
38786;BME280;24535;45.508;12.252;2023-05-25T06:46:27;101756.69;;;24.87;52.07
38786;BME280;24535;45.508;12.252;2023-05-25T06:48:53;101760.84;;;24.90;51.28
38786;BME280;24535;45.508;12.252;2023-05-25T06:51:18;101761.88;;;24.89;51.64
38786;BME280;24535;45.508;12.252;2023-05-25T06:53:44;101769.28;;;24.87;51.31
38786;BME280;24535;45.508;12.252;2023-05-25T06:56:09;101773.84;;;24.86;51.05
38786;BME280;24535;45.508;12.252;2023-05-25T06:58:35;101771.16;;;24.86;51.18
38786;BME280;24535;45.508;12.252;2023-05-25T07:01:00;101768.44;;;24.86;51.16
38786;BME280;24535;45.508;12.252;2023-05-25T07:03:26;101772.34;;;24.92;51.69
38786;BME280;24535;45.508;12.252;2023-05-25T07:05:51;101774.16;;;25.00;51.79
38786;BME280;24535;45.508;12.252;2023-05-25T07:08:16;101781.75;;;25.12;51.89
38786;BME280;24535;45.508;12.252;2023-05-25T07:10:42;101776.47;;;25.27;51.36
38786;BME280;24535;45.508;12.252;2023-05-25T07:13:08;101792.97;;;25.40;50.92
38786;BME280;24535;45.508;12.252;2023-05-25T07:15:33;101790.25;;;25.49;50.69
38786;BME280;24535;45.508;12.252;2023-05-25T07:17:58;101793.59;;;25.51;50.50
38786;BME280;24535;45.508;12.252;2023-05-25T07:20:24;101797.81;;;25.53;50.79
38786;BME280;24535;45.508;12.252;2023-05-25T07:22:49;101802.00;;;25.56;50.26
38786;BME280;24535;45.508;12.252;2023-05-25T07:25:15;101797.81;;;25.53;50.19
38786;BME280;24535;45.508;12.252;2023-05-25T07:27:40;101793.59;;;25.51;50.45
38786;BME280;24535;45.508;12.252;2023-05-25T07:30:06;101795.63;;;25.49;50.55
38786;BME280;24535;45.508;12.252;2023-05-25T07:32:32;101790.38;;;25.47;50.22
38786;BME280;24535;45.508;12.252;2023-05-25T07:34:57;101792.25;;;25.47;50.46
38786;BME280;24535;45.508;12.252;2023-05-25T07:37:23;101791.41;;;25.46;50.91
38786;BME280;24535;45.508;12.252;2023-05-25T07:39:48;101789.41;;;25.48;50.46
38786;BME280;24535;45.508;12.252;2023-05-25T07:42:15;101794.09;;;25.54;50.09
38786;BME280;24535;45.508;12.252;2023-05-25T07:44:44;101799.94;;;25.66;50.41
38786;BME280;24535;45.508;12.252;2023-05-25T07:47:10;101797.38;;;25.81;50.00
38786;BME280;24535;45.508;12.252;2023-05-25T07:49:35;101798.19;;;26.12;50.46
38786;BME280;24535;45.508;12.252;2023-05-25T07:52:00;101804.63;;;26.57;50.09
38786;BME280;24535;45.508;12.252;2023-05-25T07:54:28;101802.09;;;26.94;48.79
38786;BME280;24535;45.508;12.252;2023-05-25T07:56:53;101808.50;;;27.30;48.43
38786;BME280;24535;45.508;12.252;2023-05-25T07:59:19;101808.88;;;27.72;48.15
38786;BME280;24535;45.508;12.252;2023-05-25T08:01:44;101809.78;;;28.15;47.25
38786;BME280;24535;45.508;12.252;2023-05-25T08:04:09;101812.47;;;28.51;46.24
38786;BME280;24535;45.508;12.252;2023-05-25T08:06:35;101802.53;;;28.87;46.01
38786;BME280;24535;45.508;12.252;2023-05-25T08:09:02;101808.78;;;29.08;44.77
38786;BME280;24535;45.508;12.252;2023-05-25T08:11:27;101811.31;;;29.17;44.46
38786;BME280;24535;45.508;12.252;2023-05-25T08:13:52;101807.16;;;29.14;44.57
38786;BME280;24535;45.508;12.252;2023-05-25T08:16:18;101807.31;;;29.06;44.03
38786;BME280;24535;45.508;12.252;2023-05-25T08:18:43;101808.09;;;29.00;44.61
38786;BME280;24535;45.508;12.252;2023-05-25T08:21:10;101809.59;;;29.02;44.61
38786;BME280;24535;45.508;12.252;2023-05-25T08:23:36;101814.47;;;29.14;44.09
38786;BME280;24535;45.508;12.252;2023-05-25T08:26:06;101809.34;;;29.32;44.43
38786;BME280;24535;45.508;12.252;2023-05-25T08:28:31;101818.44;;;29.52;44.03
38786;BME280;24535;45.508;12.252;2023-05-25T08:30:56;101817.94;;;29.77;44.33
38786;BME280;24535;45.508;12.252;2023-05-25T08:33:22;101834.97;;;29.99;43.07
38786;BME280;24535;45.508;12.252;2023-05-25T08:35:48;101818.53;;;30.20;43.48
38786;BME280;24535;45.508;12.252;2023-05-25T08:38:14;101824.81;;;30.41;43.05
38786;BME280;24535;45.508;12.252;2023-05-25T08:40:40;101823.81;;;30.55;42.77
38786;BME280;24535;45.508;12.252;2023-05-25T08:43:06;101824.44;;;30.64;42.23
38786;BME280;24535;45.508;12.252;2023-05-25T08:45:31;101816.50;;;30.75;42.07
38786;BME280;24535;45.508;12.252;2023-05-25T08:47:58;101823.59;;;30.90;41.88
38786;BME280;24535;45.508;12.252;2023-05-25T08:50:23;101819.00;;;31.03;41.35
38786;BME280;24535;45.508;12.252;2023-05-25T08:52:50;101831.09;;;31.14;41.60
38786;BME280;24535;45.508;12.252;2023-05-25T08:55:17;101829.22;;;31.21;40.96
38786;BME280;24535;45.508;12.252;2023-05-25T09:00:24;101828.56;;;31.19;40.38
38786;BME280;24535;45.508;12.252;2023-05-25T09:05:15;101832.38;;;31.12;40.84
38786;BME280;24535;45.508;12.252;2023-05-25T09:07:41;101833.22;;;30.99;40.46
38786;BME280;24535;45.508;12.252;2023-05-25T09:10:07;101830.50;;;30.86;41.45
38786;BME280;24535;45.508;12.252;2023-05-25T09:12:32;101827.13;;;30.70;40.56
38786;BME280;24535;45.508;12.252;2023-05-25T09:15:00;101837.19;;;30.57;41.02
38786;BME280;24535;45.508;12.252;2023-05-25T09:17:25;101834.47;;;30.43;41.38
38786;BME280;24535;45.508;12.252;2023-05-25T09:19:51;101832.75;;;30.29;41.48
38786;BME280;24535;45.508;12.252;2023-05-25T09:22:16;101840.06;;;30.15;41.92
38786;BME280;24535;45.508;12.252;2023-05-25T09:24:42;101841.00;;;30.01;42.09
38786;BME280;24535;45.508;12.252;2023-05-25T09:27:12;101839.72;;;29.84;41.84
38786;BME280;24535;45.508;12.252;2023-05-25T09:29:41;101836.69;;;29.65;42.06
38786;BME280;24535;45.508;12.252;2023-05-25T09:32:06;101845.59;;;29.52;42.44
38786;BME280;24535;45.508;12.252;2023-05-25T09:34:32;101847.56;;;29.37;42.61
38786;BME280;24535;45.508;12.252;2023-05-25T09:37:01;101842.91;;;29.24;43.06
38786;BME280;24535;45.508;12.252;2023-05-25T09:39:27;101842.63;;;29.13;43.13
38786;BME280;24535;45.508;12.252;2023-05-25T09:41:52;101839.66;;;29.01;42.97
38786;BME280;24535;45.508;12.252;2023-05-25T09:44:17;101835.75;;;28.89;43.41
38786;BME280;24535;45.508;12.252;2023-05-25T09:46:43;101837.75;;;28.80;44.02
38786;BME280;24535;45.508;12.252;2023-05-25T09:49:08;101839.78;;;28.71;43.57
38786;BME280;24535;45.508;12.252;2023-05-25T09:51:34;101839.28;;;28.61;43.95
38786;BME280;24535;45.508;12.252;2023-05-25T09:54:00;101832.94;;;28.54;44.41
38786;BME280;24535;45.508;12.252;2023-05-25T09:56:26;101833.06;;;28.46;44.75
38786;BME280;24535;45.508;12.252;2023-05-25T09:58:55;101823.09;;;28.31;44.30
38786;BME280;24535;45.508;12.252;2023-05-25T10:01:20;101818.00;;;28.22;44.73
38786;BME280;24535;45.508;12.252;2023-05-25T10:03:46;101817.66;;;28.10;44.72
38786;BME280;24535;45.508;12.252;2023-05-25T10:06:15;101812.38;;;28.02;44.92
38786;BME280;24535;45.508;12.252;2023-05-25T10:08:42;101813.50;;;27.93;45.16
38786;BME280;24535;45.508;12.252;2023-05-25T10:11:07;101812.59;;;27.85;45.39
38786;BME280;24535;45.508;12.252;2023-05-25T10:13:33;101817.28;;;27.77;45.57
38786;BME280;24535;45.508;12.252;2023-05-25T10:15:59;101815.28;;;27.71;45.51
38786;BME280;24535;45.508;12.252;2023-05-25T10:18:27;101825.03;;;27.65;45.77
38786;BME280;24535;45.508;12.252;2023-05-25T10:20:56;101820.16;;;27.60;45.76
38786;BME280;24535;45.508;12.252;2023-05-25T10:23:24;101818.88;;;27.56;45.69
38786;BME280;24535;45.508;12.252;2023-05-25T10:25:53;101816.72;;;27.52;45.65
38786;BME280;24535;45.508;12.252;2023-05-25T10:30:50;101815.78;;;27.45;45.49
38786;BME280;24535;45.508;12.252;2023-05-25T10:33:16;101818.50;;;27.45;45.63
38786;BME280;24535;45.508;12.252;2023-05-25T10:35:42;101819.69;;;27.42;45.86
38786;BME280;24535;45.508;12.252;2023-05-25T10:38:07;101812.97;;;27.38;45.92
38786;BME280;24535;45.508;12.252;2023-05-25T10:40:34;101817.94;;;27.34;46.09
38786;BME280;24535;45.508;12.252;2023-05-25T10:43:00;101813.75;;;27.32;46.47
38786;BME280;24535;45.508;12.252;2023-05-25T10:45:25;101814.13;;;27.29;46.01
38786;BME280;24535;45.508;12.252;2023-05-25T10:47:51;101813.63;;;27.25;45.74
38786;BME280;24535;45.508;12.252;2023-05-25T10:50:20;101813.16;;;27.22;46.10
38786;BME280;24535;45.508;12.252;2023-05-25T10:52:56;101807.97;;;27.20;46.18
38786;BME280;24535;45.508;12.252;2023-05-25T10:55:21;101803.75;;;27.18;45.62
38786;BME280;24535;45.508;12.252;2023-05-25T10:58:05;101799.16;;;27.18;46.34
38786;BME280;24535;45.508;12.252;2023-05-25T11:00:31;101799.16;;;27.18;45.98
38786;BME280;24535;45.508;12.252;2023-05-25T11:02:56;101797.13;;;27.20;45.87
38786;BME280;24535;45.508;12.252;2023-05-25T11:07:53;101793.38;;;27.21;46.19
38786;BME280;24535;45.508;12.252;2023-05-25T11:18:36;101781.38;;;27.24;46.55
38786;BME280;24535;45.508;12.252;2023-05-25T11:21:15;101778.00;;;27.22;45.36
38786;BME280;24535;45.508;12.252;2023-05-25T11:23:52;101778.00;;;27.22;46.03
38786;BME280;24535;45.508;12.252;2023-05-25T11:26:21;101771.75;;;27.21;46.33
38786;BME280;24535;45.508;12.252;2023-05-25T11:28:47;101771.09;;;27.19;46.10
38786;BME280;24535;45.508;12.252;2023-05-25T11:31:13;101767.56;;;27.19;46.45
38786;BME280;24535;45.508;12.252;2023-05-25T11:33:38;101765.69;;;27.19;46.22
38786;BME280;24535;45.508;12.252;2023-05-25T11:36:05;101761.13;;;27.20;46.47
38786;BME280;24535;45.508;12.252;2023-05-25T11:38:32;101757.56;;;27.19;46.75
38786;BME280;24535;45.508;12.252;2023-05-25T11:40:57;101755.03;;;27.18;46.69
38786;BME280;24535;45.508;12.252;2023-05-25T11:43:23;101751.34;;;27.19;47.03
38786;BME280;24535;45.508;12.252;2023-05-25T11:45:55;101750.66;;;27.17;46.57
38786;BME280;24535;45.508;12.252;2023-05-25T11:48:21;101746.09;;;27.17;46.55
38786;BME280;24535;45.508;12.252;2023-05-25T11:50:46;101749.00;;;27.16;46.61
38786;BME280;24535;45.508;12.252;2023-05-25T11:53:11;101748.78;;;27.17;46.69
38786;BME280;24535;45.508;12.252;2023-05-25T11:55:37;101752.53;;;27.16;46.37
38786;BME280;24535;45.508;12.252;2023-05-25T11:58:05;101752.53;;;27.16;46.33
38786;BME280;24535;45.508;12.252;2023-05-25T12:00:30;101743.59;;;27.16;46.13
38786;BME280;24535;45.508;12.252;2023-05-25T12:02:56;101744.63;;;27.15;46.56
38786;BME280;24535;45.508;12.252;2023-05-25T12:05:22;101746.00;;;27.10;46.73
38786;BME280;24535;45.508;12.252;2023-05-25T12:07:48;101741.56;;;27.09;46.78
38786;BME280;24535;45.508;12.252;2023-05-25T12:10:14;101744.69;;;27.06;46.36
38786;BME280;24535;45.508;12.252;2023-05-25T12:12:42;101746.72;;;27.04;46.54
38786;BME280;24535;45.508;12.252;2023-05-25T12:15:09;101742.13;;;27.05;47.12
38786;BME280;24535;45.508;12.252;2023-05-25T12:17:34;101736.72;;;27.05;47.22
38786;BME280;24535;45.508;12.252;2023-05-25T12:20:00;101732.00;;;27.07;47.04
38786;BME280;24535;45.508;12.252;2023-05-25T12:22:25;101739.06;;;27.08;47.20
38786;BME280;24535;45.508;12.252;2023-05-25T12:24:51;101736.56;;;27.06;47.02
38786;BME280;24535;45.508;12.252;2023-05-25T12:27:19;101740.94;;;27.07;47.29
38786;BME280;24535;45.508;12.252;2023-05-25T12:29:47;101734.03;;;27.05;46.77
38786;BME280;24535;45.508;12.252;2023-05-25T12:32:12;101734.22;;;27.03;47.40
38786;BME280;24535;45.508;12.252;2023-05-25T12:34:38;101725.28;;;27.03;46.87
38786;BME280;24535;45.508;12.252;2023-05-25T12:37:03;101727.31;;;27.01;47.60
38786;BME280;24535;45.508;12.252;2023-05-25T12:41:54;101715.19;;;26.97;47.07
38786;BME280;24535;45.508;12.252;2023-05-25T12:44:20;101708.31;;;26.94;47.42
38786;BME280;24535;45.508;12.252;2023-05-25T12:46:47;101706.59;;;26.93;47.35
38786;BME280;24535;45.508;12.252;2023-05-25T12:49:23;101711.16;;;26.93;47.74
38786;BME280;24535;45.508;12.252;2023-05-25T12:51:49;101714.06;;;26.91;47.58
38786;BME280;24535;45.508;12.252;2023-05-25T12:54:14;101711.72;;;26.88;47.66
38786;BME280;24535;45.508;12.252;2023-05-25T12:56:52;101706.06;;;26.83;47.77
38786;BME280;24535;45.508;12.252;2023-05-25T12:59:18;101704.53;;;26.80;47.75